createdAt,value
2019-01-25T00:01:07.912Z,36.93
2019-01-25T00:03:35.977Z,35.37
2019-01-25T00:06:03.905Z,36.07
2019-01-25T00:08:30.387Z,37.30
2019-01-25T00:10:56.919Z,35.77
2019-01-25T00:13:23.696Z,37.53
2019-01-25T00:15:50.178Z,38.73
2019-01-25T00:18:16.719Z,36.47
2019-01-25T00:20:43.323Z,37.93
2019-01-25T00:23:09.905Z,36.97
2019-01-25T00:25:36.326Z,39.67
2019-01-25T00:28:03.205Z,36.70
2019-01-25T00:30:29.610Z,38.67
2019-01-25T00:32:56.139Z,38.67
2019-01-25T00:35:22.723Z,37.50
2019-01-25T00:37:49.216Z,38.97
2019-01-25T00:40:18.355Z,36.67
2019-01-25T00:42:45.038Z,40.07
2019-01-25T00:45:12.274Z,38.67
2019-01-25T00:47:38.715Z,38.17
2019-01-25T00:50:09.025Z,38.43
2019-01-25T00:52:35.697Z,37.43
2019-01-25T00:55:03.821Z,39.23
2019-01-25T00:57:30.416Z,40.03
2019-01-25T00:59:56.882Z,38.37
2019-01-25T01:02:23.296Z,38.77
2019-01-25T01:04:49.700Z,38.13
2019-01-25T01:07:17.488Z,39.67
2019-01-25T01:09:44.174Z,38.73
2019-01-25T01:12:10.752Z,38.77
2019-01-25T01:14:37.280Z,40.57
2019-01-25T01:17:03.852Z,40.23
2019-01-25T01:19:30.262Z,38.27
2019-01-25T01:21:56.721Z,41.47
2019-01-25T01:24:23.109Z,39.57
2019-01-25T01:26:51.518Z,39.47
2019-01-25T01:29:18.024Z,41.77
2019-01-25T01:31:45.024Z,41.87
2019-01-25T01:34:11.461Z,39.97
2019-01-25T01:36:37.864Z,39.37
2019-01-25T01:39:05.251Z,39.03
2019-01-25T01:41:31.658Z,39.93
2019-01-25T01:43:58.141Z,38.77
2019-01-25T01:46:24.545Z,38.40
2019-01-25T01:48:51.037Z,41.03
2019-01-25T01:51:17.561Z,37.93
2019-01-25T01:53:43.923Z,40.80
2019-01-25T01:56:10.354Z,38.43
2019-01-25T01:58:36.847Z,40.87
2019-01-25T02:01:03.539Z,38.37
2019-01-25T02:03:29.907Z,39.60
2019-01-25T02:05:56.364Z,38.20
2019-01-25T02:08:22.741Z,38.07
2019-01-25T02:10:49.260Z,40.13
2019-01-25T02:13:15.852Z,40.17
2019-01-25T02:15:42.387Z,37.97
2019-01-25T02:18:08.878Z,38.93
2019-01-25T02:20:35.519Z,39.07
2019-01-25T02:23:02.134Z,41.17
2019-01-25T02:25:28.956Z,39.27
2019-01-25T02:27:55.521Z,39.73
2019-01-25T02:30:23.745Z,39.57
2019-01-25T02:32:50.325Z,40.47
2019-01-25T02:35:16.840Z,38.57
2019-01-25T02:37:43.322Z,39.60
2019-01-25T02:40:18.485Z,39.40
2019-01-25T02:42:45.040Z,38.23
2019-01-25T02:45:12.435Z,39.63
2019-01-25T02:47:39.169Z,39.07
2019-01-25T02:50:12.343Z,39.53
2019-01-25T02:52:40.752Z,39.07
2019-01-25T02:55:08.981Z,39.53
2019-01-25T02:57:35.463Z,39.53
2019-01-25T03:00:05.802Z,39.93
2019-01-25T03:02:32.362Z,38.07
2019-01-25T03:04:58.783Z,40.23
2019-01-25T03:07:25.341Z,38.87
2019-01-25T03:09:51.823Z,40.50
2019-01-25T03:12:18.362Z,41.90
2019-01-25T03:14:44.720Z,40.17
2019-01-25T03:17:11.250Z,39.17
2019-01-25T03:19:39.554Z,41.43
2019-01-25T03:22:06.219Z,40.83
2019-01-25T03:24:32.767Z,41.43
2019-01-25T03:26:59.279Z,40.87
2019-01-25T03:29:25.698Z,41.47
2019-01-25T03:31:52.213Z,40.10
2019-01-25T03:34:18.678Z,40.30
2019-01-25T03:36:45.183Z,40.43
2019-01-25T03:39:11.761Z,40.20
2019-01-25T03:41:38.381Z,40.23
2019-01-25T03:44:04.966Z,40.63
2019-01-25T03:46:31.477Z,41.47
2019-01-25T03:48:57.948Z,39.53
2019-01-25T03:51:24.411Z,39.80
2019-01-25T03:53:51.058Z,40.50
2019-01-25T03:56:18.720Z,41.30
2019-01-25T03:58:45.196Z,40.77
2019-01-25T04:01:11.581Z,39.63
2019-01-25T04:03:38.123Z,40.27
2019-01-25T04:06:04.687Z,38.77
2019-01-25T04:08:31.977Z,41.00
2019-01-25T04:11:03.366Z,38.27
2019-01-25T04:13:26.673Z,38.87
2019-01-25T04:15:53.150Z,40.80
2019-01-25T04:18:20.609Z,40.03
2019-01-25T04:20:46.999Z,41.90
2019-01-25T04:23:13.403Z,41.83
2019-01-25T04:25:39.787Z,40.90
2019-01-25T04:28:06.393Z,39.67
2019-01-25T04:30:33.201Z,41.20
2019-01-25T04:32:59.846Z,42.60
2019-01-25T04:35:26.429Z,41.47
2019-01-25T04:37:53.031Z,40.73
2019-01-25T04:40:20.801Z,41.83
2019-01-25T04:42:47.400Z,42.63
2019-01-25T04:45:16.765Z,43.93
2019-01-25T04:47:43.325Z,41.00
2019-01-25T04:50:13.062Z,42.23
2019-01-25T04:52:40.190Z,42.80
2019-01-25T04:55:10.352Z,41.27
2019-01-25T04:57:36.856Z,41.43
2019-01-25T05:00:07.152Z,42.23
2019-01-25T05:02:33.763Z,42.10
2019-01-25T05:05:00.209Z,40.53
2019-01-25T05:07:26.703Z,38.30
2019-01-25T05:09:53.078Z,40.67
2019-01-25T05:12:19.594Z,40.60
2019-01-25T05:14:46.088Z,40.80
2019-01-25T05:17:12.536Z,40.40
2019-01-25T05:19:39.293Z,42.20
2019-01-25T05:22:06.052Z,42.03
2019-01-25T05:24:32.487Z,42.17
2019-01-25T05:26:58.959Z,39.93
2019-01-25T05:29:44.294Z,42.17
2019-01-25T05:32:11.039Z,41.50
2019-01-25T05:34:37.588Z,39.30
2019-01-25T05:37:08.676Z,39.90
2019-01-25T05:39:35.226Z,40.00
2019-01-25T05:42:01.628Z,40.87
2019-01-25T05:44:28.166Z,40.23
2019-01-25T05:46:54.559Z,40.73
2019-01-25T05:49:22.778Z,40.87
2019-01-25T05:51:49.455Z,39.90
2019-01-25T05:54:15.978Z,40.77
2019-01-25T05:56:42.359Z,41.50
2019-01-25T05:59:08.971Z,41.13
2019-01-25T06:01:41.085Z,41.27
2019-01-25T06:04:08.191Z,40.77
2019-01-25T06:06:34.701Z,42.93
2019-01-25T06:09:01.228Z,41.77
2019-01-25T06:11:35.219Z,43.17
2019-01-25T06:13:57.107Z,40.27
2019-01-25T06:16:23.543Z,42.93
2019-01-25T06:18:50.033Z,40.03
2019-01-25T06:21:16.635Z,42.53
2019-01-25T06:23:43.149Z,40.93
2019-01-25T06:26:11.896Z,41.97
2019-01-25T06:28:38.458Z,44.43
2019-01-25T06:31:05.136Z,43.27
2019-01-25T06:33:31.570Z,43.13
2019-01-25T06:35:57.948Z,42.10
2019-01-25T06:38:24.467Z,44.47
2019-01-25T06:40:50.868Z,42.07
2019-01-25T06:43:17.398Z,44.97
2019-01-25T06:45:43.992Z,42.13
2019-01-25T06:48:10.468Z,40.63
2019-01-25T06:50:36.895Z,42.93
2019-01-25T06:53:03.514Z,42.13
2019-01-25T06:55:30.006Z,42.43
2019-01-25T06:58:01.118Z,39.70
2019-01-25T07:00:35.453Z,43.57
2019-01-25T07:03:01.906Z,41.83
2019-01-25T07:05:28.556Z,42.93
2019-01-25T07:07:57.082Z,40.97
2019-01-25T07:10:23.722Z,45.10
2019-01-25T07:12:50.094Z,44.13
2019-01-25T07:15:18.724Z,42.33
2019-01-25T07:17:45.797Z,43.30
2019-01-25T07:20:16.269Z,43.93
2019-01-25T07:22:42.630Z,43.30
2019-01-25T07:25:11.640Z,41.87
2019-01-25T07:27:38.271Z,44.13
2019-01-25T07:30:08.645Z,44.67
2019-01-25T07:32:43.861Z,43.23
2019-01-25T07:35:11.147Z,42.80
2019-01-25T07:37:37.721Z,44.13
2019-01-25T07:40:06.737Z,44.10
2019-01-25T07:42:33.335Z,44.17
2019-01-25T07:44:59.809Z,46.60
2019-01-25T07:47:26.333Z,42.53
2019-01-25T07:49:52.751Z,47.63
2019-01-25T07:52:19.162Z,42.20
2019-01-25T07:54:45.599Z,44.13
2019-01-25T07:57:11.985Z,46.70
2019-01-25T07:59:38.526Z,46.23
2019-01-25T08:02:05.226Z,44.23
2019-01-25T08:04:31.725Z,45.07
2019-01-25T08:06:58.977Z,46.93
2019-01-25T08:09:25.725Z,48.77
2019-01-25T08:11:52.492Z,46.47
2019-01-25T08:14:19.162Z,47.77
2019-01-25T08:16:45.524Z,47.93
2019-01-25T08:19:12.171Z,47.43
2019-01-25T08:21:38.621Z,45.60
2019-01-25T08:24:05.322Z,50.23
2019-01-25T08:26:31.944Z,47.57
2019-01-25T08:28:58.576Z,49.33
2019-01-25T08:31:25.506Z,47.53
2019-01-25T08:33:51.920Z,47.30
2019-01-25T08:36:18.545Z,46.13
2019-01-25T08:38:45.130Z,47.87
2019-01-25T08:41:11.762Z,51.40
2019-01-25T08:43:38.117Z,46.77
2019-01-25T08:51:10.338Z,48.60
2019-01-25T08:53:36.836Z,48.00
2019-01-25T08:56:06.386Z,47.03
2019-01-25T08:58:32.918Z,50.00
2019-01-25T09:00:59.473Z,48.30
2019-01-25T09:03:25.868Z,50.97
2019-01-25T09:05:52.386Z,49.80
2019-01-25T09:08:18.839Z,48.30
2019-01-25T09:10:45.341Z,50.40
2019-01-25T09:13:11.830Z,48.63
2019-01-25T09:15:38.394Z,47.57
2019-01-25T09:18:04.965Z,48.67
2019-01-25T09:20:31.493Z,48.47
2019-01-25T09:22:57.977Z,48.03
2019-01-25T09:25:24.463Z,48.23
2019-01-25T09:27:50.980Z,47.63
2019-01-25T09:30:25.170Z,49.40
2019-01-25T09:32:51.902Z,48.47
2019-01-25T09:35:18.478Z,48.80
2019-01-25T09:37:45.116Z,47.67
2019-01-25T09:40:21.512Z,47.73
2019-01-25T09:42:54.071Z,48.53
2019-01-25T09:45:20.949Z,48.63
2019-01-25T09:47:47.364Z,44.77
2019-01-25T09:50:21.590Z,50.10
2019-01-25T09:52:48.277Z,50.13
2019-01-25T09:55:19.992Z,51.07
2019-01-25T09:57:46.593Z,48.60
2019-01-25T10:00:22.522Z,48.97
2019-01-25T10:02:49.113Z,49.37
2019-01-25T10:05:15.782Z,53.17
2019-01-25T10:07:42.557Z,49.90
2019-01-25T10:10:09.154Z,51.37
2019-01-25T10:12:43.078Z,51.40
2019-01-25T10:15:13.692Z,53.73
2019-01-25T10:17:40.241Z,52.40
2019-01-25T10:20:09.251Z,50.50
2019-01-25T10:22:35.765Z,54.93
2019-01-25T10:25:04.666Z,50.27
2019-01-25T10:27:31.060Z,50.90
2019-01-25T10:29:57.676Z,52.80
2019-01-25T10:32:24.276Z,53.53
2019-01-25T10:34:50.670Z,52.00
2019-01-25T10:37:17.111Z,50.80
2019-01-25T10:39:43.641Z,52.13
2019-01-25T10:42:10.265Z,51.73
2019-01-25T10:44:36.646Z,47.37
2019-01-25T10:47:03.866Z,46.43
2019-01-25T10:49:30.463Z,46.73
2019-01-25T10:51:56.954Z,48.93
2019-01-25T10:54:23.344Z,44.30
2019-01-25T10:56:50.010Z,46.53
2019-01-25T10:59:16.534Z,45.47
2019-01-25T11:01:43.046Z,47.67
2019-01-25T11:07:05.881Z,45.73
2019-01-25T11:09:32.376Z,46.33
2019-01-25T11:11:58.930Z,46.17
2019-01-25T11:14:25.309Z,46.17
2019-01-25T11:16:51.744Z,44.87
2019-01-25T11:19:18.241Z,43.27
2019-01-25T11:21:44.883Z,41.67
2019-01-25T11:24:11.420Z,38.50
2019-01-25T11:26:38.145Z,37.53
2019-01-25T11:29:04.856Z,37.67
2019-01-25T11:31:31.258Z,36.40
2019-01-25T11:33:57.674Z,38.60
2019-01-25T11:36:24.255Z,43.03
2019-01-25T11:38:50.863Z,41.63
2019-01-25T11:41:18.131Z,35.50
2019-01-25T11:43:44.546Z,26.33
2019-01-25T11:46:11.324Z,23.63
2019-01-25T11:48:37.759Z,23.50
2019-01-25T11:51:04.147Z,21.47
2019-01-25T11:53:30.545Z,20.23
2019-01-25T11:55:57.050Z,19.17
2019-01-25T11:58:23.618Z,19.10
2019-01-25T12:00:50.149Z,19.00
2019-01-25T12:03:16.585Z,18.40
2019-01-25T12:05:43.043Z,17.70
2019-01-25T12:08:09.889Z,18.27
2019-01-25T12:10:36.302Z,21.13
2019-01-25T12:13:03.054Z,18.77
2019-01-25T12:15:29.572Z,18.70
2019-01-25T12:17:55.978Z,18.97
2019-01-25T12:20:27.478Z,19.40
2019-01-25T12:22:54.092Z,18.83
2019-01-25T12:25:20.687Z,19.07
2019-01-25T12:27:47.229Z,17.73
2019-01-25T12:30:17.447Z,18.93
2019-01-25T12:32:43.859Z,19.20
2019-01-25T12:35:11.508Z,19.53
2019-01-25T12:37:37.965Z,18.53
2019-01-25T12:40:08.159Z,20.57
2019-01-25T12:42:34.769Z,19.17
2019-01-25T12:45:01.304Z,19.27
2019-01-25T12:47:27.742Z,19.50
2019-01-25T12:49:54.283Z,19.80
2019-01-25T12:52:20.878Z,19.90
2019-01-25T12:54:47.310Z,18.67
2019-01-25T12:57:13.784Z,19.87
2019-01-25T12:59:40.233Z,19.10
2019-01-25T13:02:06.837Z,17.60
2019-01-25T13:04:33.248Z,18.60
2019-01-25T13:06:59.858Z,18.80
2019-01-25T13:09:26.484Z,20.23
2019-01-25T13:11:53.103Z,18.87
2019-01-25T13:14:19.594Z,20.67
2019-01-25T13:16:46.231Z,20.20
2019-01-25T13:19:12.607Z,17.03
2019-01-25T13:21:39.171Z,17.90
2019-01-25T13:24:05.825Z,17.13
2019-01-25T13:26:32.421Z,17.47
2019-01-25T13:28:58.860Z,17.97
2019-01-25T13:31:25.266Z,17.80
2019-01-25T13:33:52.062Z,18.60
2019-01-25T13:36:18.563Z,18.13
2019-01-25T13:38:47.234Z,18.53
2019-01-25T13:41:13.874Z,16.83
2019-01-25T13:43:44.075Z,18.37
2019-01-25T13:46:10.898Z,19.03
2019-01-25T13:48:37.500Z,18.30
2019-01-25T13:51:04.246Z,16.83
2019-01-25T13:53:31.742Z,16.53
2019-01-25T13:55:58.264Z,17.70
2019-01-25T13:58:24.746Z,17.50
2019-01-25T14:00:54.264Z,16.90
2019-01-25T14:03:21.092Z,16.87
2019-01-25T14:05:47.678Z,17.17
2019-01-25T14:08:14.148Z,17.53
2019-01-25T14:10:40.783Z,17.20
2019-01-25T14:13:07.435Z,16.23
2019-01-25T14:15:34.088Z,16.97
2019-01-25T14:18:00.709Z,17.23
2019-01-25T14:20:31.547Z,16.20
2019-01-25T14:22:58.101Z,15.57
2019-01-25T14:25:24.723Z,15.37
2019-01-25T14:27:51.548Z,16.07
2019-01-25T14:30:24.286Z,14.60
2019-01-25T14:32:51.622Z,14.70
2019-01-25T14:35:18.652Z,14.27
2019-01-25T14:37:45.307Z,15.00
2019-01-25T14:40:12.373Z,15.50
2019-01-25T14:42:38.865Z,14.50
2019-01-25T14:45:09.118Z,13.40
2019-01-25T14:47:35.507Z,14.80
2019-01-25T14:50:04.618Z,14.70
2019-01-25T14:52:31.330Z,14.83
2019-01-25T14:54:57.772Z,13.80
2019-01-25T14:57:27.350Z,13.47
2019-01-25T14:59:54.188Z,14.17
2019-01-25T15:02:21.021Z,14.33
2019-01-25T15:04:49.743Z,13.57
2019-01-25T15:07:19.170Z,14.47
2019-01-25T15:09:48.876Z,14.83
2019-01-25T15:12:15.500Z,13.90
2019-01-25T15:14:42.022Z,14.40
2019-01-25T15:17:08.613Z,14.27
2019-01-25T15:19:35.351Z,13.53
2019-01-25T15:22:01.816Z,15.40
2019-01-25T15:24:28.916Z,13.57
2019-01-25T15:26:55.516Z,14.23
2019-01-25T15:29:25.451Z,15.10
2019-01-25T15:31:51.982Z,13.97
2019-01-25T15:34:18.521Z,13.60
2019-01-25T15:36:46.177Z,13.80
2019-01-25T15:39:13.308Z,13.83
2019-01-25T15:41:39.818Z,13.50
2019-01-25T15:44:10.112Z,15.40
2019-01-25T15:46:34.818Z,15.50
2019-01-25T15:49:01.270Z,16.30
2019-01-25T15:51:27.876Z,17.37
2019-01-25T15:53:54.313Z,16.03
2019-01-25T15:56:21.023Z,16.33
2019-01-25T15:58:47.591Z,16.33
2019-01-25T16:01:14.228Z,17.30
2019-01-25T16:03:40.716Z,17.90
2019-01-25T16:06:07.154Z,16.30
2019-01-25T16:08:33.601Z,17.57
2019-01-25T16:11:00.114Z,18.37
2019-01-25T16:13:26.689Z,19.60
2019-01-25T16:15:53.225Z,20.03
2019-01-25T16:18:19.605Z,19.37
2019-01-25T16:20:46.154Z,21.17
2019-01-25T16:23:12.610Z,19.13
2019-01-25T16:25:40.055Z,21.53
2019-01-25T16:28:06.637Z,21.93
2019-01-25T16:30:34.680Z,22.97
2019-01-25T16:33:01.141Z,22.33
2019-01-25T16:35:27.772Z,21.33
2019-01-25T16:37:54.763Z,22.47
2019-01-25T16:40:23.924Z,24.00
2019-01-25T16:42:50.494Z,23.80
2019-01-25T16:45:23.050Z,24.83
2019-01-25T16:47:49.454Z,25.97
2019-01-25T16:50:23.418Z,27.00
2019-01-25T16:52:44.433Z,28.13
2019-01-25T16:55:13.090Z,31.07
2019-01-25T16:57:39.565Z,30.10
2019-01-25T17:00:30.709Z,29.03
2019-01-25T17:02:57.280Z,28.60
2019-01-25T17:05:24.174Z,30.37
2019-01-25T17:07:50.750Z,29.20
2019-01-25T17:10:25.920Z,31.07
2019-01-25T17:12:54.910Z,30.87
2019-01-25T17:15:21.918Z,29.13
2019-01-25T17:17:49.581Z,31.73
2019-01-25T17:20:21.361Z,33.57
2019-01-25T17:22:47.108Z,31.60
2019-01-25T17:25:14.146Z,31.17
2019-01-25T17:27:41.016Z,32.40
2019-01-25T17:30:12.110Z,34.00
2019-01-25T17:32:38.590Z,34.17
2019-01-25T17:35:14.067Z,35.47
2019-01-25T17:37:42.785Z,32.53
2019-01-25T17:40:15.670Z,33.77
2019-01-25T17:42:42.556Z,37.30
2019-01-25T17:45:11.570Z,32.93
2019-01-25T17:47:38.232Z,33.57
2019-01-25T17:50:08.118Z,34.77
2019-01-25T17:52:34.643Z,35.50
2019-01-25T17:55:07.427Z,36.23
2019-01-25T17:57:34.290Z,34.07
2019-01-25T18:00:00.800Z,32.57
2019-01-25T18:02:27.338Z,32.60
2019-01-25T18:04:53.857Z,28.27
2019-01-25T18:07:20.269Z,32.53
2019-01-25T18:09:46.900Z,31.97
2019-01-25T18:12:13.335Z,29.43
2019-01-25T18:14:40.068Z,31.90
2019-01-25T18:17:07.037Z,31.47
2019-01-25T18:19:33.772Z,32.07
2019-01-25T18:22:00.467Z,32.53
2019-01-25T18:24:26.959Z,31.97
2019-01-25T18:26:54.629Z,33.20
2019-01-25T18:29:21.230Z,33.23
2019-01-25T18:31:47.797Z,31.23
2019-01-25T18:34:14.286Z,32.83
2019-01-25T18:36:40.869Z,31.97
2019-01-25T18:39:07.477Z,31.63
2019-01-25T18:41:35.396Z,30.87
2019-01-25T18:44:02.068Z,30.20
2019-01-25T18:46:28.626Z,33.53
2019-01-25T18:48:55.066Z,31.73
2019-01-25T18:51:21.676Z,31.43
2019-01-25T18:53:48.118Z,31.00
2019-01-25T18:56:14.689Z,32.07
2019-01-25T18:58:41.137Z,32.70
2019-01-25T19:01:07.713Z,34.07
2019-01-25T19:03:34.122Z,32.20
2019-01-25T19:06:00.614Z,29.80
2019-01-25T19:08:27.146Z,32.37
2019-01-25T19:10:55.037Z,30.53
2019-01-25T19:13:21.573Z,32.83
2019-01-25T19:15:47.961Z,34.27
2019-01-25T19:18:14.600Z,33.20
2019-01-25T19:20:41.107Z,32.10
2019-01-25T19:23:07.749Z,31.13
2019-01-25T19:25:34.243Z,32.30
2019-01-25T19:28:01.087Z,31.43
2019-01-25T19:30:34.127Z,30.73
2019-01-25T19:33:00.776Z,30.30
2019-01-25T19:35:27.309Z,31.57
2019-01-25T19:37:53.931Z,30.37
2019-01-25T19:40:24.096Z,30.00
2019-01-25T19:42:51.800Z,31.43
2019-01-25T19:45:18.633Z,31.87
2019-01-25T19:47:45.332Z,31.27
2019-01-25T19:50:14.835Z,30.23
2019-01-25T19:52:41.640Z,30.97
2019-01-25T19:55:11.210Z,30.50
2019-01-25T19:57:37.729Z,31.30
2019-01-25T20:00:08.235Z,31.47
2019-01-25T20:02:34.783Z,31.30
2019-01-25T20:05:01.151Z,33.53
2019-01-25T20:07:27.763Z,30.47
2019-01-25T20:09:54.190Z,30.83
2019-01-25T20:12:20.768Z,30.70
2019-01-25T20:14:47.395Z,31.73
2019-01-25T20:17:13.920Z,30.53
2019-01-25T20:19:40.386Z,31.53
2019-01-25T20:22:08.028Z,32.73
2019-01-25T20:24:34.453Z,31.80
2019-01-25T20:27:00.833Z,33.63
2019-01-25T20:29:28.971Z,29.33
2019-01-25T20:31:57.638Z,33.30
2019-01-25T20:34:25.408Z,34.17
2019-01-25T20:36:54.002Z,33.87
2019-01-25T20:39:20.448Z,33.93
2019-01-25T20:41:46.815Z,32.23
2019-01-25T20:44:13.704Z,33.27
2019-01-25T20:46:40.130Z,32.40
2019-01-25T20:49:06.740Z,32.10
2019-01-25T20:51:33.611Z,33.77
2019-01-25T20:54:00.146Z,33.50
2019-01-25T20:56:26.765Z,34.00
2019-01-25T20:58:53.694Z,32.90
2019-01-25T21:01:20.273Z,34.27
2019-01-25T21:03:46.839Z,32.90
2019-01-25T21:06:13.199Z,31.40
2019-01-25T21:08:39.883Z,33.93
2019-01-25T21:11:06.466Z,34.33
2019-01-25T21:13:33.255Z,35.40
2019-01-25T21:15:59.636Z,33.93
2019-01-25T21:18:26.143Z,33.93
2019-01-25T21:20:52.502Z,34.47
2019-01-25T21:23:19.058Z,33.43
2019-01-25T21:25:45.517Z,34.57
2019-01-25T21:28:12.213Z,35.87
2019-01-25T21:30:38.802Z,37.13
2019-01-25T21:33:05.537Z,35.80
2019-01-25T21:35:32.183Z,37.20
2019-01-25T21:37:59.937Z,35.73
2019-01-25T21:40:28.520Z,38.70
2019-01-25T21:42:58.583Z,37.73
2019-01-25T21:45:28.070Z,35.70
2019-01-25T21:47:54.720Z,36.80
2019-01-25T21:50:24.180Z,37.50
2019-01-25T21:52:50.715Z,38.63
2019-01-25T21:55:17.198Z,35.13
2019-01-25T21:57:43.927Z,36.73
2019-01-25T22:00:22.808Z,36.70
2019-01-25T22:02:49.543Z,38.50
2019-01-25T22:05:16.586Z,39.50
2019-01-25T22:07:43.154Z,41.30
2019-01-25T22:10:18.514Z,36.27
2019-01-25T22:12:45.078Z,35.07
2019-01-25T22:15:15.000Z,36.87
2019-01-25T22:17:41.597Z,33.23
2019-01-25T22:20:11.612Z,36.30
2019-01-25T22:22:38.046Z,34.10
2019-01-25T22:25:07.049Z,30.87
2019-01-25T22:27:33.622Z,32.77
2019-01-25T22:30:00.178Z,32.07
2019-01-25T22:32:26.810Z,32.47
2019-01-25T22:34:53.285Z,31.47
2019-01-25T22:37:19.721Z,31.77
2019-01-25T22:39:46.365Z,32.20
2019-01-25T22:42:12.960Z,31.23
2019-01-25T22:44:39.523Z,31.97
2019-01-25T22:47:08.185Z,32.33
2019-01-25T22:49:34.808Z,33.33
2019-01-25T22:52:01.375Z,33.20
2019-01-25T22:54:28.192Z,34.50
2019-01-25T22:56:54.847Z,34.27
2019-01-25T22:59:21.778Z,32.77
2019-01-25T23:01:48.559Z,33.60
2019-01-25T23:04:41.827Z,35.10
2019-01-25T23:07:08.322Z,33.57
2019-01-25T23:09:34.856Z,33.73
2019-01-25T23:12:01.355Z,35.67
2019-01-25T23:14:27.918Z,36.90
2019-01-25T23:19:31.309Z,36.17
2019-01-25T23:21:58.023Z,38.50
2019-01-25T23:24:24.669Z,38.70
2019-01-25T23:26:52.853Z,38.50
2019-01-25T23:29:19.355Z,38.83
2019-01-25T23:31:45.980Z,39.83
2019-01-25T23:34:12.485Z,37.77
2019-01-25T23:36:40.223Z,41.83
2019-01-25T23:39:07.188Z,40.53
2019-01-25T23:41:33.774Z,38.73
2019-01-25T23:44:00.210Z,41.57
2019-01-25T23:46:26.596Z,36.30
2019-01-25T23:48:53.076Z,41.07
2019-01-25T23:51:22.982Z,41.00
2019-01-25T23:53:47.956Z,35.83
2019-01-25T23:56:14.437Z,38.67
2019-01-25T23:58:40.918Z,42.90
